createdAt,value
2023-03-23T16:46:26.013Z,68.27
2023-03-23T16:51:22.409Z,68.15
2023-03-23T16:56:20.087Z,67.75
2023-03-23T17:01:16.753Z,67.82
2023-03-23T17:06:13.302Z,67.47
2023-03-23T17:11:13.826Z,67.32
2023-03-23T17:16:12.350Z,67.61
2023-03-23T17:21:14.647Z,68.05
2023-03-23T17:26:11.297Z,67.78
2023-03-23T17:31:11.066Z,68.00
2023-03-23T17:36:09.110Z,68.02
2023-03-23T19:45:13.746Z,70.33
2023-03-23T19:50:10.250Z,70.19
2023-03-23T19:55:06.754Z,70.50
2023-03-23T20:00:10.037Z,70.20
2023-03-23T20:05:08.602Z,70.63
2023-03-23T20:10:08.049Z,70.37
2023-03-23T20:15:56.770Z,70.79
2023-03-23T20:20:26.731Z,70.56
2023-03-23T20:25:32.631Z,70.53
2023-03-23T20:30:31.955Z,71.00
2023-03-23T20:35:29.664Z,70.81
2023-03-23T20:40:29.785Z,70.83
2023-03-23T20:45:26.667Z,71.26
2023-03-23T20:50:29.661Z,71.33
2023-03-23T20:55:27.656Z,71.52
2023-03-23T21:00:24.332Z,71.60
2023-03-23T21:05:23.065Z,71.84
2023-03-23T21:10:19.720Z,71.91
2023-03-23T21:15:16.214Z,71.95
2023-03-23T21:20:13.072Z,72.17
2023-03-23T21:25:10.166Z,71.94
2023-03-23T21:30:07.367Z,72.11
2023-03-23T21:35:04.381Z,72.21
2023-03-23T21:40:04.383Z,72.14
2023-03-23T21:45:03.826Z,72.54
2023-03-23T21:50:00.331Z,72.89
2023-03-23T21:54:59.396Z,72.95
2023-03-23T21:59:57.289Z,72.71
2023-03-23T22:04:57.230Z,73.35
2023-03-23T22:09:53.831Z,73.58
2023-03-23T22:14:50.355Z,73.31
2023-03-23T22:19:49.350Z,73.58
2023-03-23T22:24:46.007Z,73.44
2023-03-23T22:29:42.514Z,73.80
2023-03-23T22:34:41.010Z,73.80
2023-03-23T22:39:37.522Z,73.90
2023-03-23T22:44:34.056Z,74.03
2023-03-23T22:49:32.689Z,73.82
2023-03-23T22:54:29.131Z,73.97
2023-03-23T22:59:26.774Z,73.86
2023-03-23T23:04:23.656Z,73.92
2023-03-23T23:09:21.692Z,74.36
2023-03-23T23:14:19.573Z,74.38
2023-03-23T23:19:16.338Z,74.39
2023-03-23T23:24:12.741Z,74.21
2023-03-23T23:29:09.288Z,74.20
2023-03-23T23:34:08.554Z,74.41
2023-03-23T23:39:08.402Z,74.46
2023-03-23T23:44:05.678Z,74.78
2023-03-23T23:49:02.409Z,74.73
2023-03-23T23:54:01.593Z,74.43
2023-03-23T23:58:58.402Z,74.36
